YPCC

Details ICAO YPCC (CCK)
Name Cocos Keeling Island
Region Australia
Timezone Unknown (UTC+0.0)
Plans Departing 23
Arriving 30
Stats Elevation 10 ft / 3 m (AMSL)
Location -12.191340° 96.833693°
Runways 1
Magnetic Variation 1.927° W
Sunrise 2017-12-12 23:03:15 UTC / 2017-12-12 23:03:15 Local
Sunset 2017-12-13 11:53:05 UTC / 2017-12-13 11:53:05 Local
Advertisement - Login to hide

Runways

ID Width Length Bearing (true) Bearing (mag) Surface Threshold Offset Overrun Length
15 148 ft / 45 m 8,039 ft / 2,450 m 149.38° 151.31° Asphalt 0 ft / 0 m 1,047 ft / 319 m
33 148 ft / 45 m 8,039 ft / 2,450 m 329.38° 331.31° Asphalt 0 ft / 0 m 1,020 ft / 311 m

Map

Weather


0- 5 10 15 20 25 30 35+ Temperature / ° C

Clouds and Precipitation
Forecast for 2017-12-12 18:00 UTC. Updated an hour ago

Ground ~20,000 ft ~40,000 ft Winds

METAR

YPCC 121800Z AUTO 14012KT 9999 // OVC057 26/21 Q1013

TAF

TAF YPCC 121714Z 1218/1318 13012KT 9999 -SHRA SCT020 BKN030

Frequencies

Unicom 118.10 MHz CTAF
Warning: Do not use this data for real-world aviation or navigation. No guarantee of current accuracy is given.